createdAt,value
2022-11-28T00:10:43.517Z,4.00
2022-11-28T00:25:45.734Z,4.70
2022-11-28T00:40:47.687Z,4.32
2022-11-28T00:55:49.649Z,3.83
2022-11-28T01:10:51.636Z,4.00
2022-11-28T01:25:53.630Z,4.28
2022-11-28T01:40:56.062Z,4.00
2022-11-28T01:56:08.615Z,3.70
2022-11-28T05:34:24.859Z,3.65
2022-11-28T05:49:27.327Z,3.85
2022-11-28T06:04:29.629Z,4.25
2022-11-28T06:19:31.862Z,3.53
2022-11-28T06:34:34.721Z,3.63
2022-11-28T06:49:37.230Z,4.30
2022-11-28T07:04:39.481Z,5.20
2022-11-28T07:19:42.015Z,5.20
2022-11-28T07:34:49.863Z,4.45
2022-11-28T07:49:52.605Z,4.85
2022-11-28T08:04:55.497Z,5.03
2022-11-28T08:19:57.784Z,4.90
2022-11-28T08:35:00.084Z,5.55
2022-11-28T08:50:02.702Z,6.15
2022-11-28T09:05:05.200Z,5.25
2022-11-28T09:20:08.110Z,6.43
2022-11-28T09:35:10.483Z,5.95
2022-11-28T09:50:21.035Z,5.65
2022-11-28T10:05:58.863Z,6.07
2022-11-28T10:21:28.630Z,6.50
2022-11-28T10:36:39.804Z,6.15
2022-11-28T10:51:55.370Z,6.32
2022-11-28T11:07:29.730Z,6.30
2022-11-28T11:22:32.663Z,6.55
2022-11-28T11:37:38.191Z,6.07
2022-11-28T11:52:40.422Z,5.80
2022-11-28T12:07:56.191Z,6.45
2022-11-28T12:23:18.345Z,6.10
2022-11-28T12:38:26.320Z,5.75
2022-11-28T12:53:42.960Z,5.90
2022-11-28T13:08:57.121Z,5.53
2022-11-28T13:24:07.480Z,6.38
2022-11-28T13:39:16.785Z,6.65
2022-11-28T13:54:19.407Z,5.90
2022-11-28T14:09:44.825Z,6.45
2022-11-28T14:25:21.388Z,6.53
2022-11-28T14:40:51.316Z,6.82
2022-11-28T14:55:53.484Z,7.68
2022-11-28T15:11:14.721Z,6.95
2022-11-28T15:26:29.938Z,6.20
2022-11-28T15:41:33.447Z,6.80
2022-11-28T15:56:35.992Z,7.40
2022-11-28T16:11:38.228Z,6.93
2022-11-28T16:26:40.953Z,7.05
2022-11-28T16:41:55.063Z,7.50
2022-11-28T16:57:14.812Z,7.20
2022-11-28T17:12:29.876Z,7.47
2022-11-28T17:27:32.123Z,8.38
2022-11-28T17:42:34.419Z,9.23
2022-11-28T17:57:37.551Z,8.48
2022-11-28T18:12:39.815Z,8.23
2022-11-28T18:27:43.278Z,8.75
2022-11-28T18:42:45.865Z,8.60
2022-11-28T18:57:48.193Z,11.02
2022-11-28T19:13:11.544Z,28.75
2022-11-28T19:28:14.386Z,25.15
2022-11-28T19:43:30.133Z,20.10
2022-11-28T19:58:35.828Z,20.30
2022-11-28T20:13:38.414Z,19.27
2022-11-28T20:28:41.647Z,16.83
2022-11-28T20:43:44.079Z,16.13
2022-11-28T20:58:46.968Z,14.52
2022-11-28T21:13:50.549Z,13.63
2022-11-28T21:28:54.609Z,13.20
2022-11-28T21:43:57.086Z,9.95
2022-11-28T21:58:59.341Z,10.85
2022-11-28T22:14:01.589Z,10.98
2022-11-28T22:29:05.156Z,10.20
2022-11-28T22:44:07.835Z,11.65
2022-11-28T22:59:14.179Z,9.35
2022-11-28T23:14:16.941Z,9.10
2022-11-28T23:29:19.435Z,8.77
2022-11-28T23:44:21.665Z,9.35
2022-11-28T23:59:23.830Z,9.05
